Time;durP1;ratioP1;P1;durP2;ratioP2;P2;SDS_P1;SDS_P2;PMS_P1;PMS_P2;Temp;Humidity;BMP_temperature;BMP_pressure;BME280_temperature;BME280_humidity;BME280_pressure;Samples;Min_cycle;Max_cycle;Signal;HPM_P1;HPM_P2
2023/12/11 00:15:42;;;;;;;13.95;9.38;;;;;;;20.21;52.39;100192.63;41647493;28;20041;-68
2023/12/11 00:35:43;;;;;;;12.40;9.25;;;;;;;20.20;52.23;100147.13;41651138;28;20202;-68
2023/12/11 00:55:44;;;;;;;11.73;8.60;;;;;;;20.19;52.55;100149.84;41618569;28;20570;-69
2023/12/11 01:15:44;;;;;;;11.23;8.10;;;;;;;20.21;52.44;100134.78;41644523;28;20049;-69
2023/12/11 01:35:44;;;;;;;10.13;8.00;;;;;;;20.19;52.46;100128.81;41651002;28;20056;-68
2023/12/11 01:55:47;;;;;;;9.32;7.45;;;;;;;20.17;51.99;100099.19;41651731;28;20119;-68
2023/12/11 02:15:49;;;;;;;9.65;7.70;;;;;;;20.15;52.11;100086.16;41651775;28;20053;-67
2023/12/11 02:35:50;;;;;;;10.65;7.93;;;;;;;20.13;52.01;100090.72;41690331;28;20021;-67
2023/12/11 02:55:50;;;;;;;9.27;7.43;;;;;;;20.18;51.66;100030.72;41693291;28;20037;-68
2023/12/11 03:15:51;;;;;;;9.07;7.38;;;;;;;20.14;51.75;100032.75;41675715;28;20117;-73
2023/12/11 03:35:51;;;;;;;8.02;6.65;;;;;;;20.18;51.89;100019.34;41687456;28;20067;-68
2023/12/11 03:55:52;;;;;;;9.10;7.35;;;;;;;20.15;51.48;100039.69;41690319;28;20040;-68
2023/12/11 04:15:53;;;;;;;8.73;6.68;;;;;;;20.13;51.50;100036.34;41719176;28;20037;-68
2023/12/11 04:35:53;;;;;;;9.07;6.95;;;;;;;20.12;51.56;100004.91;41687622;28;20048;-68
2023/12/11 04:55:54;;;;;;;8.85;6.63;;;;;;;20.16;51.77;100008.97;41706057;28;20052;-68
2023/12/11 05:15:55;;;;;;;8.77;7.00;;;;;;;20.39;50.77;100038.69;41705817;28;20068;-69
2023/12/11 05:35:55;;;;;;;13.15;8.75;;;;;;;21.02;51.13;99988.06;41689091;28;20132;-72
2023/12/11 05:55:55;;;;;;;25.17;10.20;;;;;;;21.17;51.00;99956.16;41720211;28;20065;-81
2023/12/11 06:15:56;;;;;;;21.35;9.68;;;;;;;21.27;50.16;99989.44;41670632;28;20416;-73
2023/12/11 06:35:56;;;;;;;16.10;9.07;;;;;;;21.40;47.96;100044.56;41683119;28;20075;-74
2023/12/11 06:55:56;;;;;;;17.88;9.10;;;;;;;21.59;48.01;99967.50;41698529;28;20051;-74
2023/12/11 07:15:57;;;;;;;16.25;8.60;;;;;;;21.62;47.86;99945.31;41672347;28;20044;-77
2023/12/11 07:35:58;;;;;;;13.57;7.07;;;;;;;21.61;47.85;99948.91;41667609;28;20144;-76
2023/12/11 07:55:58;;;;;;;12.52;7.18;;;;;;;21.64;47.99;99990.81;41668230;28;20049;-75
2023/12/11 08:15:59;;;;;;;11.38;7.30;;;;;;;21.66;47.88;99956.44;41664009;28;20510;-75
2023/12/11 08:35:59;;;;;;;14.10;9.25;;;;;;;21.83;48.55;99870.63;41665588;28;20146;-73
2023/12/11 08:56:01;;;;;;;14.63;9.55;;;;;;;21.74;50.22;99922.34;41671415;28;20053;-74
2023/12/11 09:16:01;;;;;;;13.27;9.60;;;;;;;21.54;50.33;99892.41;41630716;28;20052;-76
2023/12/11 09:36:02;;;;;;;12.35;9.02;;;;;;;21.55;49.92;99889.63;41592728;28;20034;-75
2023/12/11 09:56:04;;;;;;;11.77;8.80;;;;;;;21.61;49.38;99869.88;41631343;28;20069;-77
2023/12/11 10:16:05;;;;;;;13.05;8.93;;;;;;;21.55;49.35;99868.56;41634641;28;20049;-77
2023/12/11 10:36:12;;;;;;;30.20;19.45;;;;;;;21.62;50.15;99844.34;41578922;28;20041;-73
2023/12/11 10:56:12;;;;;;;;;;;;;;;21.65;49.55;99807.19;41619536;28;20068;-76
2023/12/11 11:16:13;;;;;;;25.40;17.05;;;;;;;21.54;48.97;99806.31;41678037;28;20483;-75
2023/12/11 11:36:16;;;;;;;23.80;15.75;;;;;;;21.67;48.69;99747.31;41624879;28;20045;-78
2023/12/11 11:56:17;;;;;;;20.85;14.60;;;;;;;21.69;48.40;99711.09;41635245;28;20037;-77
2023/12/11 12:16:28;;;;;;;20.10;14.35;;;;;;;21.65;48.36;99734.25;41643019;28;20397;-75
2023/12/11 12:36:33;;;;;;;18.02;13.00;;;;;;;21.72;47.78;99742.44;41635751;28;20059;-76
2023/12/11 12:56:33;;;;;;;16.55;12.48;;;;;;;21.78;48.12;99754.25;41626594;28;20045;-78
2023/12/11 13:16:35;;;;;;;17.35;12.20;;;;;;;21.90;47.91;99732.06;41628579;28;20482;-76
2023/12/11 13:36:35;;;;;;;15.77;10.82;;;;;;;21.90;48.33;99768.94;41649783;28;20107;-76
2023/12/11 13:56:35;;;;;;;13.70;10.23;;;;;;;21.77;48.19;99771.03;41665361;28;20536;-77
2023/12/11 14:16:36;;;;;;;13.40;9.32;;;;;;;21.82;48.01;99727.47;41653244;28;20041;-76
2023/12/11 14:36:36;;;;;;;13.02;9.55;;;;;;;21.82;47.65;99739.81;41652005;28;20132;-72
2023/12/11 14:56:37;;;;;;;12.55;9.45;;;;;;;21.69;47.77;99697.91;41662325;28;20049;-74
2023/12/11 15:16:39;;;;;;;12.18;9.27;;;;;;;21.52;48.01;99709.94;41672428;28;20037;-76
2023/12/11 15:36:39;;;;;;;13.43;9.10;;;;;;;21.41;47.87;99726.69;41677165;28;20108;-73
2023/12/11 15:56:41;;;;;;;15.10;9.90;;;;;;;21.35;48.17;99714.94;41616987;28;20123;-77
2023/12/11 16:16:41;;;;;;;13.23;9.93;;;;;;;21.24;48.20;99709.78;41665951;28;20044;-75
2023/12/11 16:36:41;;;;;;;15.70;10.00;;;;;;;21.16;48.94;99697.28;41603625;28;20049;-71
2023/12/11 16:56:43;;;;;;;18.23;10.73;;;;;;;21.02;47.96;99710.81;41587902;28;20048;-75
2023/12/11 17:16:44;;;;;;;19.75;13.70;;;;;;;21.01;49.64;99706.56;41628623;28;20049;-73
2023/12/11 17:36:44;;;;;;;25.77;14.20;;;;;;;21.31;51.07;99739.84;41567502;28;20159;-74
2023/12/11 17:56:45;;;;;;;22.90;13.43;;;;;;;21.24;51.73;99721.16;41582094;28;20065;-69
2023/12/11 18:16:46;;;;;;;21.50;14.20;;;;;;;21.23;51.71;99703.69;41623014;28;20053;-69
2023/12/11 18:36:49;;;;;;;22.88;15.38;;;;;;;21.25;52.13;99716.69;41604091;28;20048;-76
2023/12/11 18:56:50;;;;;;;24.42;15.48;;;;;;;21.22;52.08;99709.09;41646883;28;20123;-74
2023/12/11 19:16:50;;;;;;;22.05;14.38;;;;;;;21.22;52.06;99683.56;41662443;28;20053;-77
2023/12/11 19:36:51;;;;;;;23.95;14.15;;;;;;;21.26;51.88;99665.72;41700239;28;20061;-69
2023/12/11 19:56:52;;;;;;;20.20;13.70;;;;;;;21.13;51.17;99629.13;41754771;28;20158;-74
2023/12/11 20:16:52;;;;;;;30.58;19.25;;;;;;;17.26;49.75;99645.09;41666673;28;20053;-72
2023/12/11 20:36:53;;;;;;;25.02;15.75;;;;;;;20.82;48.75;99641.53;41619301;28;20045;-69
2023/12/11 20:56:53;;;;;;;21.30;14.63;;;;;;;20.91;50.47;99678.41;41654989;28;20136;-68
2023/12/11 21:16:54;;;;;;;21.55;14.63;;;;;;;21.00;50.30;99645.16;41582401;28;20053;-72
2023/12/11 21:36:54;;;;;;;19.77;14.27;;;;;;;20.91;50.40;99712.59;41610325;28;20441;-68
2023/12/11 21:56:55;;;;;;;17.50;13.35;;;;;;;20.84;50.60;99721.19;41643109;28;20048;-70
2023/12/11 22:16:55;;;;;;;18.33;13.50;;;;;;;20.79;50.57;99706.59;41635388;28;20042;-70
2023/12/11 22:36:56;;;;;;;17.75;13.45;;;;;;;20.74;50.96;99718.50;41666706;28;20039;-70
2023/12/11 22:56:57;;;;;;;17.70;12.93;;;;;;;20.68;51.33;99724.25;41715680;28;20140;-74
2023/12/11 23:16:57;;;;;;;17.60;13.05;;;;;;;20.59;51.56;99733.75;41678056;28;20037;-73
2023/12/11 23:36:58;;;;;;;18.67;13.13;;;;;;;20.55;51.67;99733.19;41686347;28;20046;-70
2023/12/11 23:56:58;;;;;;;16.13;12.80;;;;;;;20.51;51.98;99739.69;41686268;28;20049;-70
